sensor_id;sensor_type;location;lat;lon;timestamp;pressure;altitude;pressure_sealevel;temperature;humidity
22830;BME280;11581;51.250;6.778;2023-01-29T00:01:48;102664.78;;;1.99;64.31
22830;BME280;11581;51.250;6.778;2023-01-29T00:04:15;102658.72;;;1.97;64.37
22830;BME280;11581;51.250;6.778;2023-01-29T00:06:43;102665.75;;;1.97;64.01
22830;BME280;11581;51.250;6.778;2023-01-29T00:09:11;102656.19;;;1.94;64.26
22830;BME280;11581;51.250;6.778;2023-01-29T00:11:38;102653.59;;;1.93;64.48
22830;BME280;11581;51.250;6.778;2023-01-29T00:14:05;102658.91;;;1.91;64.05
22830;BME280;11581;51.250;6.778;2023-01-29T00:16:32;102652.81;;;1.89;64.32
22830;BME280;11581;51.250;6.778;2023-01-29T00:18:59;102652.84;;;1.88;64.22
22830;BME280;11581;51.250;6.778;2023-01-29T00:21:27;102659.09;;;1.85;64.32
22830;BME280;11581;51.250;6.778;2023-01-29T00:23:56;102635.75;;;1.73;64.17
22830;BME280;11581;51.250;6.778;2023-01-29T00:26:24;102640.75;;;1.82;64.16
22830;BME280;11581;51.250;6.778;2023-01-29T00:28:51;102650.44;;;1.80;64.38
22830;BME280;11581;51.250;6.778;2023-01-29T00:31:20;102651.38;;;1.79;64.19
22830;BME280;11581;51.250;6.778;2023-01-29T00:33:47;102647.91;;;1.77;64.19
22830;BME280;11581;51.250;6.778;2023-01-29T00:36:17;102641.84;;;1.75;64.38
22830;BME280;11581;51.250;6.778;2023-01-29T00:38:43;102642.78;;;1.74;64.58
22830;BME280;11581;51.250;6.778;2023-01-29T00:41:14;102636.69;;;1.72;64.50
22830;BME280;11581;51.250;6.778;2023-01-29T00:43:59;102558.41;;;1.22;64.63
22830;BME280;11581;51.250;6.778;2023-01-29T00:46:44;102622.25;;;1.56;64.52
22830;BME280;11581;51.250;6.778;2023-01-29T00:49:11;102643.94;;;1.64;64.49
22830;BME280;11581;51.250;6.778;2023-01-29T00:51:38;102503.44;;;0.87;64.26
22830;BME280;11581;51.250;6.778;2023-01-29T00:54:05;102543.22;;;1.04;64.36
22830;BME280;11581;51.250;6.778;2023-01-29T00:56:35;102595.66;;;1.38;64.88
22830;BME280;11581;51.250;6.778;2023-01-29T00:59:02;102631.06;;;1.55;64.85
22830;BME280;11581;51.250;6.778;2023-01-29T01:01:29;102617.34;;;1.44;64.49
22830;BME280;11581;51.250;6.778;2023-01-29T01:04:13;102643.41;;;1.53;64.78
22830;BME280;11581;51.250;6.778;2023-01-29T01:06:41;102644.34;;;1.51;64.80
22830;BME280;11581;51.250;6.778;2023-01-29T01:09:10;102644.44;;;1.48;64.28
22830;BME280;11581;51.250;6.778;2023-01-29T01:11:56;102644.53;;;1.45;64.48
22830;BME280;11581;51.250;6.778;2023-01-29T01:14:22;102656.00;;;1.42;64.71
22830;BME280;11581;51.250;6.778;2023-01-29T01:16:49;102658.69;;;1.41;64.94
22830;BME280;11581;51.250;6.778;2023-01-29T01:19:16;102537.16;;;0.70;65.01
22830;BME280;11581;51.250;6.778;2023-01-29T01:21:43;102654.34;;;1.38;65.05
22830;BME280;11581;51.250;6.778;2023-01-29T01:24:12;102649.09;;;1.38;65.73
22830;BME280;11581;51.250;6.778;2023-01-29T01:26:39;102645.56;;;1.39;65.36
22830;BME280;11581;51.250;6.778;2023-01-29T01:29:07;102646.41;;;1.40;65.53
22830;BME280;11581;51.250;6.778;2023-01-29T01:31:34;102635.84;;;1.41;65.44
22830;BME280;11581;51.250;6.778;2023-01-29T01:34:01;102617.72;;;1.32;65.72
22830;BME280;11581;51.250;6.778;2023-01-29T01:36:28;102629.72;;;1.42;65.32
22830;BME280;11581;51.250;6.778;2023-01-29T01:38:56;102579.38;;;1.25;65.32
22830;BME280;11581;51.250;6.778;2023-01-29T01:41:23;102605.13;;;1.43;65.67
22830;BME280;11581;51.250;6.778;2023-01-29T01:43:52;102598.16;;;1.42;65.31
22830;BME280;11581;51.250;6.778;2023-01-29T01:46:21;102599.91;;;1.42;65.61
22830;BME280;11581;51.250;6.778;2023-01-29T01:48:52;102596.47;;;1.40;65.54
22830;BME280;11581;51.250;6.778;2023-01-29T01:51:22;102589.03;;;1.25;64.81
22830;BME280;11581;51.250;6.778;2023-01-29T01:53:53;102538.22;;;0.95;65.36
22830;BME280;11581;51.250;6.778;2023-01-29T01:56:26;102608.94;;;1.33;64.98
22830;BME280;11581;51.250;6.778;2023-01-29T01:58:55;102609.91;;;1.31;65.29
22830;BME280;11581;51.250;6.778;2023-01-29T02:01:25;102607.34;;;1.28;65.11
22830;BME280;11581;51.250;6.778;2023-01-29T02:03:56;102571.03;;;1.11;65.65
22830;BME280;11581;51.250;6.778;2023-01-29T02:06:44;102601.34;;;1.23;65.36
22830;BME280;11581;51.250;6.778;2023-01-29T02:09:31;102609.28;;;1.21;65.25
22830;BME280;11581;51.250;6.778;2023-01-29T02:12:02;102612.81;;;1.20;65.62
22830;BME280;11581;51.250;6.778;2023-01-29T02:14:29;102617.25;;;1.18;65.65
22830;BME280;11581;51.250;6.778;2023-01-29T02:16:59;102507.00;;;0.53;65.80
22830;BME280;11581;51.250;6.778;2023-01-29T02:19:33;102347.91;;;-0.46;65.77
22830;BME280;11581;51.250;6.778;2023-01-29T02:22:11;102609.56;;;1.11;65.43
22830;BME280;11581;51.250;6.778;2023-01-29T02:25:10;102621.03;;;1.08;65.93
22830;BME280;11581;51.250;6.778;2023-01-29T02:28:02;102604.84;;;0.93;65.51
22830;BME280;11581;51.250;6.778;2023-01-29T02:30:35;102622.16;;;1.00;65.10
22830;BME280;11581;51.250;6.778;2023-01-29T02:33:10;102637.81;;;1.04;65.45
22830;BME280;11581;51.250;6.778;2023-01-29T02:35:41;102531.00;;;0.41;65.64
22830;BME280;11581;51.250;6.778;2023-01-29T02:38:16;102647.50;;;1.02;66.05
22830;BME280;11581;51.250;6.778;2023-01-29T02:40:50;102658.03;;;1.01;65.63
22830;BME280;11581;51.250;6.778;2023-01-29T02:43:29;102656.28;;;1.01;66.45
22830;BME280;11581;51.250;6.778;2023-01-29T02:46:02;102671.09;;;1.04;66.46
22830;BME280;11581;51.250;6.778;2023-01-29T02:48:39;102655.25;;;1.07;66.41
22830;BME280;11581;51.250;6.778;2023-01-29T02:51:10;102656.03;;;1.10;66.56
22830;BME280;11581;51.250;6.778;2023-01-29T02:53:44;102639.31;;;1.13;66.29
22830;BME280;11581;51.250;6.778;2023-01-29T02:56:17;102647.13;;;1.16;66.52
22830;BME280;11581;51.250;6.778;2023-01-29T02:58:49;102634.78;;;1.18;66.08
22830;BME280;11581;51.250;6.778;2023-01-29T03:01:22;102630.41;;;1.18;65.82
22830;BME280;11581;51.250;6.778;2023-01-29T03:03:57;102638.25;;;1.20;65.76
22830;BME280;11581;51.250;6.778;2023-01-29T03:06:31;102635.66;;;1.18;65.33
22830;BME280;11581;51.250;6.778;2023-01-29T03:09:00;102434.00;;;0.04;65.28
22830;BME280;11581;51.250;6.778;2023-01-29T03:11:48;102583.00;;;0.91;66.10
22830;BME280;11581;51.250;6.778;2023-01-29T03:14:21;102552.13;;;0.68;65.87
22830;BME280;11581;51.250;6.778;2023-01-29T03:17:11;102613.31;;;1.02;65.66
22830;BME280;11581;51.250;6.778;2023-01-29T03:19:43;102628.88;;;1.10;65.87
22830;BME280;11581;51.250;6.778;2023-01-29T03:22:21;102623.69;;;1.08;66.02
22830;BME280;11581;51.250;6.778;2023-01-29T03:24:50;102634.28;;;1.05;65.61
22830;BME280;11581;51.250;6.778;2023-01-29T03:27:40;102629.94;;;1.04;65.68
22830;BME280;11581;51.250;6.778;2023-01-29T03:30:33;102623.84;;;1.02;65.77
22830;BME280;11581;51.250;6.778;2023-01-29T03:33:37;102582.66;;;0.72;65.96
22830;BME280;11581;51.250;6.778;2023-01-29T03:36:09;102661.63;;;0.98;65.76
22830;BME280;11581;51.250;6.778;2023-01-29T03:38:39;102624.28;;;0.87;65.70
22830;BME280;11581;51.250;6.778;2023-01-29T03:41:09;102553.44;;;0.52;65.90
22830;BME280;11581;51.250;6.778;2023-01-29T03:43:48;102631.09;;;0.94;66.67
22830;BME280;11581;51.250;6.778;2023-01-29T03:46:21;102632.84;;;0.94;66.25
22830;BME280;11581;51.250;6.778;2023-01-29T03:48:57;102633.75;;;0.93;66.58
22830;BME280;11581;51.250;6.778;2023-01-29T03:51:30;102626.75;;;0.92;66.30
22830;BME280;11581;51.250;6.778;2023-01-29T03:54:06;102591.41;;;0.73;66.48
22830;BME280;11581;51.250;6.778;2023-01-29T03:56:43;102630.28;;;0.91;65.75
22830;BME280;11581;51.250;6.778;2023-01-29T03:59:23;102581.25;;;0.59;66.42
22830;BME280;11581;51.250;6.778;2023-01-29T04:02:07;102606.94;;;0.80;66.74
22830;BME280;11581;51.250;6.778;2023-01-29T04:04:41;102606.94;;;0.80;66.08
22830;BME280;11581;51.250;6.778;2023-01-29T04:07:11;102602.63;;;0.78;65.97
22830;BME280;11581;51.250;6.778;2023-01-29T04:09:41;102620.03;;;0.82;65.91
22830;BME280;11581;51.250;6.778;2023-01-29T04:12:13;102615.72;;;0.79;66.17
22830;BME280;11581;51.250;6.778;2023-01-29T04:14:43;102610.56;;;0.76;66.17
22830;BME280;11581;51.250;6.778;2023-01-29T04:17:13;102608.00;;;0.73;66.09
22830;BME280;11581;51.250;6.778;2023-01-29T04:20:15;102559.00;;;0.40;66.02
22830;BME280;11581;51.250;6.778;2023-01-29T04:22:46;102609.00;;;0.69;65.91
22830;BME280;11581;51.250;6.778;2023-01-29T04:25:15;102595.03;;;0.67;65.55
22830;BME280;11581;51.250;6.778;2023-01-29T04:27:51;102560.63;;;0.44;66.08
22830;BME280;11581;51.250;6.778;2023-01-29T04:30:29;102586.44;;;0.62;65.99
22830;BME280;11581;51.250;6.778;2023-01-29T04:33:12;102579.78;;;0.49;66.18
22830;BME280;11581;51.250;6.778;2023-01-29T04:35:53;102599.69;;;0.58;66.85
22830;BME280;11581;51.250;6.778;2023-01-29T04:38:36;102590.13;;;0.55;66.44
22830;BME280;11581;51.250;6.778;2023-01-29T04:41:10;102528.03;;;0.19;66.03
22830;BME280;11581;51.250;6.778;2023-01-29T04:43:44;102520.13;;;0.21;66.30
22830;BME280;11581;51.250;6.778;2023-01-29T04:46:17;102599.03;;;0.48;66.49
22830;BME280;11581;51.250;6.778;2023-01-29T04:48:57;102587.72;;;0.46;66.63
22830;BME280;11581;51.250;6.778;2023-01-29T04:51:33;102550.72;;;0.23;66.63
22830;BME280;11581;51.250;6.778;2023-01-29T04:54:06;102585.97;;;0.45;66.82
22830;BME280;11581;51.250;6.778;2023-01-29T04:56:39;102564.34;;;0.37;66.98
22830;BME280;11581;51.250;6.778;2023-01-29T04:59:11;102576.41;;;0.44;66.57
22830;BME280;11581;51.250;6.778;2023-01-29T05:01:42;102554.06;;;0.28;66.65
22830;BME280;11581;51.250;6.778;2023-01-29T05:04:12;102583.34;;;0.45;66.88
22830;BME280;11581;51.250;6.778;2023-01-29T05:06:40;102575.56;;;0.44;66.70
22830;BME280;11581;51.250;6.778;2023-01-29T05:09:08;102581.66;;;0.44;66.82
22830;BME280;11581;51.250;6.778;2023-01-29T05:11:35;102579.03;;;0.44;67.49
22830;BME280;11581;51.250;6.778;2023-01-29T05:14:03;102572.84;;;0.45;67.32
22830;BME280;11581;51.250;6.778;2023-01-29T05:16:34;102570.22;;;0.45;66.79
22830;BME280;11581;51.250;6.778;2023-01-29T05:19:11;102564.09;;;0.46;66.91
22830;BME280;11581;51.250;6.778;2023-01-29T05:21:39;102557.06;;;0.47;67.18
22830;BME280;11581;51.250;6.778;2023-01-29T05:24:09;102551.81;;;0.47;67.29
22830;BME280;11581;51.250;6.778;2023-01-29T05:26:36;102554.41;;;0.48;66.79
22830;BME280;11581;51.250;6.778;2023-01-29T05:29:20;102551.69;;;0.51;67.81
22830;BME280;11581;51.250;6.778;2023-01-29T05:31:47;102501.81;;;0.19;67.61
22830;BME280;11581;51.250;6.778;2023-01-29T05:34:15;102519.75;;;0.36;67.51
22830;BME280;11581;51.250;6.778;2023-01-29T05:36:41;102541.03;;;0.57;67.16
22830;BME280;11581;51.250;6.778;2023-01-29T05:39:08;102542.66;;;0.61;67.56
22830;BME280;11581;51.250;6.778;2023-01-29T05:41:34;102539.13;;;0.64;67.81
22830;BME280;11581;51.250;6.778;2023-01-29T05:44:01;102545.13;;;0.67;67.76
22830;BME280;11581;51.250;6.778;2023-01-29T05:46:28;102538.91;;;0.71;67.15
22830;BME280;11581;51.250;6.778;2023-01-29T05:48:54;102501.59;;;0.59;67.86
22830;BME280;11581;51.250;6.778;2023-01-29T05:51:22;102318.28;;;-0.48;67.65
22830;BME280;11581;51.250;6.778;2023-01-29T05:53:49;102487.03;;;0.47;67.78
22830;BME280;11581;51.250;6.778;2023-01-29T05:56:16;102529.78;;;0.84;67.37
22830;BME280;11581;51.250;6.778;2023-01-29T05:58:42;102543.50;;;0.94;67.31
22830;BME280;11581;51.250;6.778;2023-01-29T06:01:10;102530.44;;;0.91;67.05
22830;BME280;11581;51.250;6.778;2023-01-29T06:03:37;102521.91;;;0.84;66.77
22830;BME280;11581;51.250;6.778;2023-01-29T06:06:04;102564.22;;;1.04;67.08
22830;BME280;11581;51.250;6.778;2023-01-29T06:08:32;102550.25;;;1.02;67.46
22830;BME280;11581;51.250;6.778;2023-01-29T06:10:59;102560.69;;;1.05;67.20
22830;BME280;11581;51.250;6.778;2023-01-29T06:13:26;102564.81;;;1.14;67.41
22830;BME280;11581;51.250;6.778;2023-01-29T06:15:52;102572.56;;;1.18;66.85
22830;BME280;11581;51.250;6.778;2023-01-29T06:18:19;102577.75;;;1.21;67.33
22830;BME280;11581;51.250;6.778;2023-01-29T06:20:45;102580.28;;;1.24;66.64
22830;BME280;11581;51.250;6.778;2023-01-29T06:23:12;102584.56;;;1.27;66.79
22830;BME280;11581;51.250;6.778;2023-01-29T06:25:40;102568.22;;;1.17;67.10
22830;BME280;11581;51.250;6.778;2023-01-29T06:28:07;102598.47;;;1.32;66.48
22830;BME280;11581;51.250;6.778;2023-01-29T06:30:33;102567.22;;;1.21;66.52
22830;BME280;11581;51.250;6.778;2023-01-29T06:33:00;102571.47;;;1.25;66.85
22830;BME280;11581;51.250;6.778;2023-01-29T06:35:27;102589.63;;;1.34;66.66
22830;BME280;11581;51.250;6.778;2023-01-29T06:37:55;102597.25;;;1.43;66.69
22830;BME280;11581;51.250;6.778;2023-01-29T06:40:22;102582.81;;;1.27;66.70
22830;BME280;11581;51.250;6.778;2023-01-29T06:42:49;102598.78;;;1.50;66.78
22830;BME280;11581;51.250;6.778;2023-01-29T06:45:16;102603.03;;;1.54;66.91
22830;BME280;11581;51.250;6.778;2023-01-29T06:47:43;102603.75;;;1.59;66.66
22830;BME280;11581;51.250;6.778;2023-01-29T06:50:10;102591.53;;;1.58;66.68
22830;BME280;11581;51.250;6.778;2023-01-29T06:52:37;102594.69;;;1.69;67.16
22830;BME280;11581;51.250;6.778;2023-01-29T06:55:04;102575.53;;;1.64;67.04
22830;BME280;11581;51.250;6.778;2023-01-29T06:57:31;102531.50;;;1.43;66.89
22830;BME280;11581;51.250;6.778;2023-01-29T06:59:59;102575.84;;;1.83;66.81
22830;BME280;11581;51.250;6.778;2023-01-29T07:02:26;102573.06;;;1.87;66.94
22830;BME280;11581;51.250;6.778;2023-01-29T07:04:53;102573.84;;;1.89;66.62
22830;BME280;11581;51.250;6.778;2023-01-29T07:07:19;102579.03;;;1.92;66.39
22830;BME280;11581;51.250;6.778;2023-01-29T07:09:46;102560.00;;;1.84;65.97
22830;BME280;11581;51.250;6.778;2023-01-29T07:12:13;102571.88;;;1.97;66.47
22830;BME280;11581;51.250;6.778;2023-01-29T07:14:39;102598.09;;;2.00;66.18
22830;BME280;11581;51.250;6.778;2023-01-29T07:17:07;102572.84;;;1.93;65.88
22830;BME280;11581;51.250;6.778;2023-01-29T07:19:34;102535.84;;;1.72;65.61
22830;BME280;11581;51.250;6.778;2023-01-29T07:22:00;102577.31;;;1.91;65.73
22830;BME280;11581;51.250;6.778;2023-01-29T07:24:28;102587.50;;;2.02;66.14
22830;BME280;11581;51.250;6.778;2023-01-29T07:26:54;102585.72;;;2.02;66.15
22830;BME280;11581;51.250;6.778;2023-01-29T07:29:21;102570.44;;;1.87;66.27
22830;BME280;11581;51.250;6.778;2023-01-29T07:31:48;102591.75;;;2.06;65.88
22830;BME280;11581;51.250;6.778;2023-01-29T07:34:16;102585.63;;;2.05;65.86
22830;BME280;11581;51.250;6.778;2023-01-29T07:36:43;102520.19;;;1.67;65.84
22830;BME280;11581;51.250;6.778;2023-01-29T07:39:10;102582.06;;;2.06;65.44
22830;BME280;11581;51.250;6.778;2023-01-29T07:41:36;102561.72;;;1.85;65.81
22830;BME280;11581;51.250;6.778;2023-01-29T07:44:14;102577.63;;;2.08;65.34
22830;BME280;11581;51.250;6.778;2023-01-29T07:46:40;102576.75;;;2.08;65.69
22830;BME280;11581;51.250;6.778;2023-01-29T07:49:07;102573.28;;;2.07;65.23
22830;BME280;11581;51.250;6.778;2023-01-29T07:51:35;102557.22;;;1.89;65.87
22830;BME280;11581;51.250;6.778;2023-01-29T07:54:01;102590.78;;;2.08;65.75
22830;BME280;11581;51.250;6.778;2023-01-29T07:56:28;102477.69;;;1.53;65.99
22830;BME280;11581;51.250;6.778;2023-01-29T07:58:55;102560.13;;;2.07;65.85
22830;BME280;11581;51.250;6.778;2023-01-29T08:01:22;102548.66;;;2.08;65.48
22830;BME280;11581;51.250;6.778;2023-01-29T08:03:49;102514.16;;;1.91;65.50
22830;BME280;11581;51.250;6.778;2023-01-29T08:06:16;102547.06;;;2.04;65.37
22830;BME280;11581;51.250;6.778;2023-01-29T08:08:44;102553.00;;;2.09;65.40
22830;BME280;11581;51.250;6.778;2023-01-29T08:11:11;102537.41;;;2.05;65.58
22830;BME280;11581;51.250;6.778;2023-01-29T08:13:38;102557.00;;;1.95;65.40
22830;BME280;11581;51.250;6.778;2023-01-29T08:16:05;102577.47;;;2.13;65.57
22830;BME280;11581;51.250;6.778;2023-01-29T08:18:32;102566.19;;;2.09;65.91
22830;BME280;11581;51.250;6.778;2023-01-29T08:20:59;102564.16;;;2.17;65.72
22830;BME280;11581;51.250;6.778;2023-01-29T08:23:26;102559.00;;;2.14;65.92
22830;BME280;11581;51.250;6.778;2023-01-29T08:25:54;102578.16;;;2.19;65.44
22830;BME280;11581;51.250;6.778;2023-01-29T08:28:21;102574.31;;;2.29;65.49
22830;BME280;11581;51.250;6.778;2023-01-29T08:30:47;102568.94;;;2.33;65.69
22830;BME280;11581;51.250;6.778;2023-01-29T08:33:14;102518.25;;;2.00;65.49
22830;BME280;11581;51.250;6.778;2023-01-29T08:35:40;102575.00;;;2.34;65.72
22830;BME280;11581;51.250;6.778;2023-01-29T08:38:08;102560.75;;;2.40;65.31
22830;BME280;11581;51.250;6.778;2023-01-29T08:40:35;102545.91;;;2.38;65.39
22830;BME280;11581;51.250;6.778;2023-01-29T08:43:05;102534.28;;;2.18;65.12
22830;BME280;11581;51.250;6.778;2023-01-29T08:45:33;102485.38;;;2.11;64.74
22830;BME280;11581;51.250;6.778;2023-01-29T08:48:00;102558.50;;;2.54;65.05
22830;BME280;11581;51.250;6.778;2023-01-29T08:50:27;102557.75;;;2.51;64.99
22830;BME280;11581;51.250;6.778;2023-01-29T08:52:56;102556.72;;;2.55;64.73
22830;BME280;11581;51.250;6.778;2023-01-29T08:55:23;102561.09;;;2.56;65.18
22830;BME280;11581;51.250;6.778;2023-01-29T08:57:50;102564.53;;;2.58;64.63
22830;BME280;11581;51.250;6.778;2023-01-29T09:00:19;102497.44;;;2.18;64.70
22830;BME280;11581;51.250;6.778;2023-01-29T09:02:46;102553.88;;;2.61;65.12
22830;BME280;11581;51.250;6.778;2023-01-29T09:05:12;102558.25;;;2.62;64.88
22830;BME280;11581;51.250;6.778;2023-01-29T09:07:39;102520.88;;;2.51;65.18
22830;BME280;11581;51.250;6.778;2023-01-29T09:10:08;102559.91;;;2.64;65.01
22830;BME280;11581;51.250;6.778;2023-01-29T09:12:34;102507.81;;;2.48;65.35
22830;BME280;11581;51.250;6.778;2023-01-29T09:15:01;102527.25;;;2.68;64.89
22830;BME280;11581;51.250;6.778;2023-01-29T09:17:29;102532.47;;;2.70;64.85
22830;BME280;11581;51.250;6.778;2023-01-29T09:19:56;102532.38;;;2.73;64.69
22830;BME280;11581;51.250;6.778;2023-01-29T09:22:23;102531.44;;;2.74;65.06
22830;BME280;11581;51.250;6.778;2023-01-29T09:24:49;102408.69;;;1.97;64.90
22830;BME280;11581;51.250;6.778;2023-01-29T09:27:16;102530.44;;;2.78;65.18
22830;BME280;11581;51.250;6.778;2023-01-29T09:29:43;102523.31;;;2.80;64.91
22830;BME280;11581;51.250;6.778;2023-01-29T09:32:10;102534.69;;;2.82;64.93
22830;BME280;11581;51.250;6.778;2023-01-29T09:34:38;102481.59;;;2.68;65.10
22830;BME280;11581;51.250;6.778;2023-01-29T09:37:04;102521.19;;;2.91;65.34
22830;BME280;11581;51.250;6.778;2023-01-29T09:39:31;102496.34;;;2.73;64.99
22830;BME280;11581;51.250;6.778;2023-01-29T09:42:02;102495.53;;;2.94;64.80
22830;BME280;11581;51.250;6.778;2023-01-29T09:44:47;102505.53;;;3.09;64.56
22830;BME280;11581;51.250;6.778;2023-01-29T09:47:17;102513.16;;;3.17;65.05
22830;BME280;11581;51.250;6.778;2023-01-29T09:49:48;102503.22;;;3.23;64.77
22830;BME280;11581;51.250;6.778;2023-01-29T09:52:18;102506.47;;;3.30;65.01
22830;BME280;11581;51.250;6.778;2023-01-29T09:54:51;102470.84;;;3.20;64.51
22830;BME280;11581;51.250;6.778;2023-01-29T09:57:24;102455.75;;;3.23;64.30
22830;BME280;11581;51.250;6.778;2023-01-29T09:59:54;102475.78;;;3.50;64.77
22830;BME280;11581;51.250;6.778;2023-01-29T10:02:41;102487.84;;;3.56;63.48
22830;BME280;11581;51.250;6.778;2023-01-29T10:05:31;102494.53;;;3.64;63.70
22830;BME280;11581;51.250;6.778;2023-01-29T10:08:16;102404.75;;;3.23;63.33
22830;BME280;11581;51.250;6.778;2023-01-29T10:10:47;102497.34;;;3.81;64.02
22830;BME280;11581;51.250;6.778;2023-01-29T10:13:19;102505.75;;;3.91;64.03
22830;BME280;11581;51.250;6.778;2023-01-29T10:16:02;102480.56;;;3.82;63.28
22830;BME280;11581;51.250;6.778;2023-01-29T10:19:05;102493.69;;;4.05;63.21
22830;BME280;11581;51.250;6.778;2023-01-29T10:21:51;102473.66;;;4.00;62.86
22830;BME280;11581;51.250;6.778;2023-01-29T10:24:25;102499.13;;;4.22;63.37
22830;BME280;11581;51.250;6.778;2023-01-29T10:26:57;102499.69;;;4.29;63.79
22830;BME280;11581;51.250;6.778;2023-01-29T10:29:25;102509.88;;;4.38;63.60
22830;BME280;11581;51.250;6.778;2023-01-29T10:31:55;102501.63;;;4.45;63.49
22830;BME280;11581;51.250;6.778;2023-01-29T10:34:32;102498.59;;;4.54;63.13
22830;BME280;11581;51.250;6.778;2023-01-29T10:37:13;102488.66;;;4.59;61.88
22830;BME280;11581;51.250;6.778;2023-01-29T10:39:41;102488.31;;;4.67;63.03
22830;BME280;11581;51.250;6.778;2023-01-29T10:42:17;102454.06;;;4.45;61.54
22830;BME280;11581;51.250;6.778;2023-01-29T10:44:55;102479.97;;;4.76;61.43
22830;BME280;11581;51.250;6.778;2023-01-29T10:47:46;102473.00;;;4.75;61.29
22830;BME280;11581;51.250;6.778;2023-01-29T10:50:24;102472.72;;;4.81;61.38
22830;BME280;11581;51.250;6.778;2023-01-29T10:53:15;102465.56;;;4.83;61.34
22830;BME280;11581;51.250;6.778;2023-01-29T10:55:54;102465.28;;;4.89;61.78
22830;BME280;11581;51.250;6.778;2023-01-29T10:58:30;102439.38;;;4.77;61.64
22830;BME280;11581;51.250;6.778;2023-01-29T11:01:00;102457.06;;;4.95;62.29
22830;BME280;11581;51.250;6.778;2023-01-29T11:03:28;102420.66;;;4.63;62.09
22830;BME280;11581;51.250;6.778;2023-01-29T11:06:02;102390.66;;;4.64;61.30
22830;BME280;11581;51.250;6.778;2023-01-29T11:08:33;102445.41;;;4.99;61.08
22830;BME280;11581;51.250;6.778;2023-01-29T11:11:06;102436.53;;;5.00;61.02
22830;BME280;11581;51.250;6.778;2023-01-29T11:13:38;102428.19;;;4.91;60.84
22830;BME280;11581;51.250;6.778;2023-01-29T11:16:07;102439.25;;;4.99;61.15
22830;BME280;11581;51.250;6.778;2023-01-29T11:18:53;102445.53;;;4.96;60.01
22830;BME280;11581;51.250;6.778;2023-01-29T11:21:20;102387.81;;;4.68;61.24
22830;BME280;11581;51.250;6.778;2023-01-29T11:23:49;102419.78;;;4.83;60.99
22830;BME280;11581;51.250;6.778;2023-01-29T11:26:18;102433.53;;;4.89;61.11
22830;BME280;11581;51.250;6.778;2023-01-29T11:28:48;102418.63;;;4.88;60.98
22830;BME280;11581;51.250;6.778;2023-01-29T11:31:23;102427.59;;;4.84;60.20
22830;BME280;11581;51.250;6.778;2023-01-29T11:33:53;102427.69;;;4.83;61.16
22830;BME280;11581;51.250;6.778;2023-01-29T11:36:30;102419.84;;;4.81;61.10
22830;BME280;11581;51.250;6.778;2023-01-29T11:39:17;102420.75;;;4.80;60.45
22830;BME280;11581;51.250;6.778;2023-01-29T11:41:47;102419.03;;;4.79;61.28
22830;BME280;11581;51.250;6.778;2023-01-29T11:44:21;102398.84;;;4.78;61.10
22830;BME280;11581;51.250;6.778;2023-01-29T11:46:52;102407.59;;;4.79;61.68
22830;BME280;11581;51.250;6.778;2023-01-29T11:49:29;102389.38;;;4.72;60.79
22830;BME280;11581;51.250;6.778;2023-01-29T11:51:59;102405.81;;;4.79;61.48
22830;BME280;11581;51.250;6.778;2023-01-29T11:54:31;102369.50;;;4.64;61.43
22830;BME280;11581;51.250;6.778;2023-01-29T11:57:00;102373.97;;;4.82;61.89
22830;BME280;11581;51.250;6.778;2023-01-29T11:59:36;102376.53;;;4.84;61.15
22830;BME280;11581;51.250;6.778;2023-01-29T12:02:16;102354.66;;;4.80;60.67
22830;BME280;11581;51.250;6.778;2023-01-29T12:04:44;102364.78;;;4.89;61.65
22830;BME280;11581;51.250;6.778;2023-01-29T12:07:13;102354.22;;;4.89;61.30
22830;BME280;11581;51.250;6.778;2023-01-29T12:09:48;102352.38;;;4.91;60.21
22830;BME280;11581;51.250;6.778;2023-01-29T12:12:25;102348.00;;;4.90;60.99
22830;BME280;11581;51.250;6.778;2023-01-29T12:15:02;102333.00;;;4.91;60.28
22830;BME280;11581;51.250;6.778;2023-01-29T12:17:32;102336.50;;;4.91;60.69
22830;BME280;11581;51.250;6.778;2023-01-29T12:20:07;102167.91;;;4.08;60.44
22830;BME280;11581;51.250;6.778;2023-01-29T12:22:41;102306.56;;;4.91;60.63
22830;BME280;11581;51.250;6.778;2023-01-29T12:25:20;102310.97;;;4.90;60.10
22830;BME280;11581;51.250;6.778;2023-01-29T12:27:53;102288.13;;;4.89;60.46
22830;BME280;11581;51.250;6.778;2023-01-29T12:30:26;102290.63;;;4.92;60.63
22830;BME280;11581;51.250;6.778;2023-01-29T12:32:59;102272.03;;;4.94;60.74
22830;BME280;11581;51.250;6.778;2023-01-29T12:35:30;102266.69;;;4.95;60.73
22830;BME280;11581;51.250;6.778;2023-01-29T12:38:02;102249.72;;;4.99;60.73
22830;BME280;11581;51.250;6.778;2023-01-29T12:40:38;102245.91;;;5.05;60.54
22830;BME280;11581;51.250;6.778;2023-01-29T12:43:21;102245.75;;;5.08;60.17
22830;BME280;11581;51.250;6.778;2023-01-29T12:45:51;102241.09;;;5.13;60.79
22830;BME280;11581;51.250;6.778;2023-01-29T12:48:23;102234.78;;;5.15;60.81
22830;BME280;11581;51.250;6.778;2023-01-29T12:50:52;102232.94;;;5.17;60.80
22830;BME280;11581;51.250;6.778;2023-01-29T12:53:25;102225.91;;;5.16;59.77
22830;BME280;11581;51.250;6.778;2023-01-29T12:55:58;102183.69;;;4.98;59.87
22830;BME280;11581;51.250;6.778;2023-01-29T12:58:30;102214.50;;;5.16;60.44
22830;BME280;11581;51.250;6.778;2023-01-29T13:01:02;102041.56;;;4.17;60.25
22830;BME280;11581;51.250;6.778;2023-01-29T13:03:44;102204.75;;;5.16;60.55
22830;BME280;11581;51.250;6.778;2023-01-29T13:06:15;102185.00;;;5.06;60.40
22830;BME280;11581;51.250;6.778;2023-01-29T13:08:45;102190.94;;;5.11;60.73
22830;BME280;11581;51.250;6.778;2023-01-29T13:11:20;102203.75;;;5.19;60.08
22830;BME280;11581;51.250;6.778;2023-01-29T13:13:50;102201.03;;;5.20;60.81
22830;BME280;11581;51.250;6.778;2023-01-29T13:16:20;102190.31;;;5.23;60.99
22830;BME280;11581;51.250;6.778;2023-01-29T13:18:52;102193.56;;;5.28;60.69
22830;BME280;11581;51.250;6.778;2023-01-29T13:21:23;102200.38;;;5.32;60.65
22830;BME280;11581;51.250;6.778;2023-01-29T13:23:54;102189.97;;;5.29;60.70